Time;durP1;ratioP1;P1;durP2;ratioP2;P2;SDS_P1;SDS_P2;PMS_P1;PMS_P2;Temp;Humidity;BMP_temperature;BMP_pressure;BME280_temperature;BME280_humidity;BME280_pressure;Samples;Min_cycle;Max_cycle;Signal;HPM_P1;HPM_P2
2023/05/21 00:01:33;;;;;;;13.55;9.75;;;;;;;15.31;65.85;94847.31;5067369;28;20039;-77
2023/05/21 00:03:59;;;;;;;13.50;8.52;;;;;;;15.28;65.16;94851.81;5065895;28;20412;-77
2023/05/21 00:06:25;;;;;;;14.90;9.55;;;;;;;15.24;64.92;94845.66;5049413;28;20032;-77
2023/05/21 00:08:50;;;;;;;12.48;8.85;;;;;;;15.24;64.98;94842.91;5065382;28;20032;-76
2023/05/21 00:11:16;;;;;;;13.25;8.93;;;;;;;15.23;65.07;94844.13;5067262;28;20052;-77
2023/05/21 00:13:41;;;;;;;14.20;8.57;;;;;;;15.21;65.16;94843.84;5065086;28;20035;-77
2023/05/21 00:16:06;;;;;;;11.30;8.40;;;;;;;15.16;65.37;94846.50;5067490;28;20031;-77
2023/05/21 00:18:33;;;;;;;11.70;8.75;;;;;;;15.14;65.54;94844.19;5066961;28;20024;-77
2023/05/21 00:20:59;;;;;;;12.90;9.38;;;;;;;15.11;65.59;94837.59;5067045;28;20067;-77
2023/05/21 00:23:25;;;;;;;12.07;8.75;;;;;;;15.09;65.40;94833.75;5049057;28;20495;-78
2023/05/21 00:25:51;;;;;;;12.23;8.60;;;;;;;15.04;65.40;94837.94;5065252;28;20108;-78
2023/05/21 00:28:17;;;;;;;12.68;8.63;;;;;;;14.98;65.39;94831.50;5067071;28;20483;-77
2023/05/21 00:30:42;;;;;;;12.98;8.43;;;;;;;14.96;65.47;94831.19;5064495;28;20028;-75
2023/05/21 00:33:09;;;;;;;13.02;8.32;;;;;;;14.94;65.24;94832.91;5065400;28;20576;-76
2023/05/21 00:35:34;;;;;;;11.93;8.00;;;;;;;14.94;65.42;94825.34;5066511;28;20036;-77
2023/05/21 00:38:00;;;;;;;10.90;8.38;;;;;;;14.88;65.24;94832.75;5065379;28;20033;-77
2023/05/21 00:40:26;;;;;;;13.40;8.80;;;;;;;14.73;65.44;94829.13;5055276;28;20035;-76
2023/05/21 00:42:55;;;;;;;12.20;8.50;;;;;;;14.73;65.43;94826.34;5048463;28;20036;-77
2023/05/21 00:45:22;;;;;;;13.90;8.85;;;;;;;14.72;65.20;94824.81;5065385;28;20341;-78
2023/05/21 00:47:48;;;;;;;12.23;8.73;;;;;;;14.70;65.23;94819.00;5064515;28;20020;-77
2023/05/21 00:50:15;;;;;;;10.40;8.15;;;;;;;14.67;65.24;94820.69;5064839;28;20032;-76
2023/05/21 00:52:42;;;;;;;10.90;8.05;;;;;;;14.63;64.95;94813.81;5064610;28;20108;-76
2023/05/21 00:55:08;;;;;;;10.77;8.07;;;;;;;14.61;64.83;94815.00;5065051;28;20039;-76
2023/05/21 00:57:36;;;;;;;12.40;7.82;;;;;;;14.61;64.80;94817.78;5064910;28;20028;-77
2023/05/21 01:00:03;;;;;;;10.55;8.52;;;;;;;14.61;65.28;94817.03;5064602;28;20451;-77
2023/05/21 01:02:31;;;;;;;11.30;7.47;;;;;;;14.57;64.94;94808.13;5066293;28;20101;-76
2023/05/21 01:04:59;;;;;;;10.35;8.13;;;;;;;14.53;64.92;94813.81;5064164;28;20025;-77
2023/05/21 01:07:24;;;;;;;10.02;7.25;;;;;;;14.55;65.17;94816.13;5065315;28;20032;-77
2023/05/21 01:09:50;;;;;;;11.68;7.65;;;;;;;14.51;65.36;94810.00;5064115;28;20384;-76
2023/05/21 01:12:17;;;;;;;12.00;8.15;;;;;;;14.52;65.54;94811.53;5066284;28;20441;-76
2023/05/21 01:14:42;;;;;;;10.07;7.63;;;;;;;14.50;65.25;94808.44;5064452;28;20037;-77
2023/05/21 01:17:09;;;;;;;11.73;7.85;;;;;;;14.49;65.23;94813.22;5064737;28;20040;-77
2023/05/21 01:19:35;;;;;;;11.05;8.10;;;;;;;14.47;65.19;94820.47;5064838;28;20035;-77
2023/05/21 01:22:03;;;;;;;9.98;7.78;;;;;;;14.44;65.34;94804.75;5047446;28;20032;-76
2023/05/21 01:24:29;;;;;;;13.20;7.30;;;;;;;14.41;64.94;94800.94;5048127;28;20103;-77
2023/05/21 01:26:55;;;;;;;11.23;6.70;;;;;;;14.39;65.12;94802.59;5065398;28;20115;-77
2023/05/21 01:29:20;;;;;;;8.70;6.95;;;;;;;14.35;64.70;94806.31;5064771;28;20111;-77
2023/05/21 01:31:52;;;;;;;10.38;6.93;;;;;;;14.33;64.73;94805.22;5047534;28;20025;-77
2023/05/21 01:34:21;;;;;;;9.25;6.22;;;;;;;14.31;64.50;94797.41;5068965;28;20036;-77
2023/05/21 01:36:53;;;;;;;10.43;6.45;;;;;;;14.31;64.18;94802.94;5067065;28;20536;-76
2023/05/21 01:39:22;;;;;;;9.15;6.25;;;;;;;14.30;64.20;94797.88;5063959;28;20017;-77
2023/05/21 01:41:49;;;;;;;9.13;6.00;;;;;;;14.27;64.04;94802.31;5064506;28;20032;-76
2023/05/21 01:44:17;;;;;;;11.82;6.70;;;;;;;14.26;64.27;94803.56;5047313;28;20028;-76
2023/05/21 01:46:42;;;;;;;10.43;6.65;;;;;;;14.26;64.21;94802.78;5064308;28;20503;-76
2023/05/21 01:49:08;;;;;;;8.35;6.15;;;;;;;14.25;64.31;94795.75;5064058;28;20027;-78
2023/05/21 01:51:34;;;;;;;8.00;6.18;;;;;;;14.25;64.40;94795.75;5064465;28;20016;-77
2023/05/21 01:54:00;;;;;;;13.88;6.13;;;;;;;14.24;64.40;94792.22;5064070;28;20035;-76
2023/05/21 01:56:27;;;;;;;8.35;6.45;;;;;;;14.23;64.27;94789.91;5064381;28;20025;-76
2023/05/21 01:58:55;;;;;;;7.97;6.43;;;;;;;14.22;64.25;94791.13;5064503;28;20487;-77
2023/05/21 02:01:21;;;;;;;13.85;7.00;;;;;;;14.20;64.60;94791.59;5064822;28;20419;-77
2023/05/21 02:03:46;;;;;;;10.80;6.32;;;;;;;14.20;64.66;94782.53;5051696;28;20032;-77
2023/05/21 02:06:12;;;;;;;12.30;6.75;;;;;;;14.21;64.77;94784.06;5067399;28;20028;-77
2023/05/21 02:08:37;;;;;;;7.93;6.22;;;;;;;14.19;64.61;94784.53;5068719;28;20051;-77
2023/05/21 02:11:03;;;;;;;10.63;6.53;;;;;;;14.18;64.62;94783.00;5067485;28;20116;-78
2023/05/21 02:13:28;;;;;;;8.85;6.07;;;;;;;14.19;64.65;94786.53;5069220;28;20090;-76
2023/05/21 02:15:54;;;;;;;7.68;5.03;;;;;;;14.18;64.51;94785.00;5068488;28;20187;-77
2023/05/21 02:18:20;;;;;;;7.97;5.60;;;;;;;14.16;64.54;94782.69;5050889;28;20024;-77
2023/05/21 02:20:45;;;;;;;7.38;5.32;;;;;;;14.08;64.02;94776.72;5069500;28;20118;-76
2023/05/21 02:23:11;;;;;;;8.18;6.15;;;;;;;14.06;63.77;94784.72;5068626;28;20024;-77
2023/05/21 02:25:36;;;;;;;11.80;7.35;;;;;;;14.06;64.15;94790.25;5069285;28;20024;-76
2023/05/21 02:28:02;;;;;;;8.80;6.03;;;;;;;14.04;64.73;94786.41;5068892;28;20032;-76
2023/05/21 02:30:27;;;;;;;8.60;5.75;;;;;;;13.97;64.48;94787.47;5073175;28;20032;-77
2023/05/21 02:32:54;;;;;;;7.60;6.35;;;;;;;13.93;64.78;94778.56;5069117;28;20162;-77
2023/05/21 02:35:19;;;;;;;8.18;6.05;;;;;;;13.90;64.74;94773.22;5067289;28;20036;-77
2023/05/21 02:37:45;;;;;;;10.80;6.97;;;;;;;13.85;64.74;94777.38;5069408;28;20043;-77
2023/05/21 02:40:10;;;;;;;11.40;6.47;;;;;;;13.81;64.73;94782.28;5068447;28;20072;-77
2023/05/21 02:42:38;;;;;;;9.45;6.55;;;;;;;13.72;65.02;94776.78;5050819;28;20036;-76
2023/05/21 02:45:06;;;;;;;9.82;6.70;;;;;;;13.71;65.01;94783.53;5068279;28;20028;-77
2023/05/21 02:47:31;;;;;;;9.48;6.00;;;;;;;13.63;64.80;94777.53;5068621;28;20150;-77
2023/05/21 02:49:58;;;;;;;8.88;6.43;;;;;;;13.63;65.06;94777.53;5067525;28;20036;-76
2023/05/21 02:52:24;;;;;;;8.85;6.45;;;;;;;13.63;64.90;94774.75;5068564;28;20131;-77
2023/05/21 02:54:51;;;;;;;9.23;6.07;;;;;;;13.61;64.75;94770.94;5067527;28;20029;-75
2023/05/21 02:57:17;;;;;;;10.75;5.47;;;;;;;13.58;64.81;94771.84;5066746;28;20028;-76
2023/05/21 02:59:43;;;;;;;8.90;6.47;;;;;;;13.54;64.96;94772.78;5067371;28;20081;-76
2023/05/21 03:02:09;;;;;;;9.00;5.90;;;;;;;13.48;65.02;94774.63;5066561;28;20515;-78
2023/05/21 03:04:37;;;;;;;9.48;6.75;;;;;;;13.43;65.04;94772.47;5066878;28;20029;-76
2023/05/21 03:07:04;;;;;;;9.35;6.20;;;;;;;13.47;65.23;94778.59;5066703;28;20352;-77
2023/05/21 03:09:31;;;;;;;10.10;6.57;;;;;;;13.34;65.23;94786.25;5068820;28;20017;-76
2023/05/21 03:11:56;;;;;;;11.55;6.53;;;;;;;13.21;65.48;94782.88;5068370;28;20089;-78
2023/05/21 03:14:23;;;;;;;8.95;6.53;;;;;;;13.18;65.49;94780.97;5066745;28;20103;-78
2023/05/21 03:16:50;;;;;;;8.75;6.90;;;;;;;13.24;65.65;94788.22;5050612;28;20021;-78
2023/05/21 03:19:15;;;;;;;9.85;6.10;;;;;;;13.25;65.62;94794.53;5066755;28;20031;-78
2023/05/21 03:21:41;;;;;;;9.05;6.55;;;;;;;13.23;65.75;94786.69;5066916;28;20028;-77
2023/05/21 03:24:08;;;;;;;9.30;7.18;;;;;;;13.21;65.75;94782.88;5066831;28;20067;-76
2023/05/21 03:26:34;;;;;;;9.15;6.85;;;;;;;13.20;65.75;94792.34;5073619;28;20028;-77
2023/05/21 03:29:00;;;;;;;8.57;6.78;;;;;;;13.14;65.95;94783.16;5066890;28;20021;-77
2023/05/21 03:31:26;;;;;;;12.05;6.93;;;;;;;13.13;66.00;94782.38;5049796;28;20034;-75
2023/05/21 03:33:52;;;;;;;9.77;7.00;;;;;;;13.20;66.00;94787.59;5068324;28;20024;-75
2023/05/21 03:36:18;;;;;;;10.07;7.00;;;;;;;13.28;66.06;94794.38;5066387;28;20066;-77
2023/05/21 03:38:43;;;;;;;10.85;7.30;;;;;;;13.35;65.84;94787.78;5050025;28;20479;-76
2023/05/21 03:41:09;;;;;;;10.73;7.32;;;;;;;13.34;65.75;94802.06;5065947;28;20024;-77
2023/05/21 03:43:35;;;;;;;10.55;6.72;;;;;;;13.32;65.43;94799.00;5066420;28;20035;-77
2023/05/21 03:46:00;;;;;;;10.18;7.43;;;;;;;13.15;65.67;94788.19;5066223;28;20048;-77
2023/05/21 03:48:26;;;;;;;9.20;7.22;;;;;;;13.20;65.75;94793.13;5066205;28;20047;-77
2023/05/21 03:50:51;;;;;;;8.35;6.22;;;;;;;13.28;65.66;94786.09;5067760;28;20086;-77
2023/05/21 03:53:17;;;;;;;10.00;6.93;;;;;;;13.36;65.63;94783.81;5067467;28;20067;-77
2023/05/21 03:55:42;;;;;;;7.63;6.78;;;;;;;13.42;65.32;94790.28;5066161;28;20024;-77
2023/05/21 03:58:09;;;;;;;11.05;6.90;;;;;;;13.51;65.40;94786.72;5067305;28;20286;-77
2023/05/21 04:00:36;;;;;;;9.82;6.57;;;;;;;13.53;65.68;94787.03;5067388;28;20043;-76
2023/05/21 04:03:02;;;;;;;12.05;7.32;;;;;;;13.40;65.08;94778.91;5067634;28;20127;-77
2023/05/21 04:05:27;;;;;;;8.95;6.53;;;;;;;13.49;64.75;94784.44;5067299;28;20052;-76
2023/05/21 04:07:53;;;;;;;11.00;6.70;;;;;;;13.42;64.65;94790.28;5065806;28;20028;-77
2023/05/21 04:10:18;;;;;;;10.18;6.97;;;;;;;13.52;64.72;94786.25;5065801;28;20104;-76
2023/05/21 04:12:44;;;;;;;12.88;7.05;;;;;;;13.61;64.55;94782.00;5067390;28;20029;-76
2023/05/21 04:15:11;;;;;;;9.07;6.40;;;;;;;13.66;64.51;94782.16;5067186;28;20104;-76
2023/05/21 04:17:36;;;;;;;12.50;7.88;;;;;;;13.74;64.33;94788.13;5065920;28;20028;-76
2023/05/21 04:20:02;;;;;;;9.13;7.28;;;;;;;13.82;64.48;94790.13;5067280;28;20020;-77
2023/05/21 04:22:28;;;;;;;12.18;6.85;;;;;;;13.92;64.17;94785.34;5073238;28;20498;-77
2023/05/21 04:24:53;;;;;;;8.45;6.70;;;;;;;13.95;64.45;94781.66;5064647;28;20055;-76
2023/05/21 04:27:22;;;;;;;8.68;7.43;;;;;;;14.07;64.55;94789.00;5067248;28;20028;-78
2023/05/21 04:29:48;;;;;;;9.43;6.70;;;;;;;14.11;64.53;94780.56;5066771;28;20509;-76
2023/05/21 04:32:16;;;;;;;11.75;7.65;;;;;;;14.18;64.27;94782.25;5066621;28;20111;-77
2023/05/21 04:34:42;;;;;;;11.50;7.68;;;;;;;14.26;64.20;94783.44;5065557;28;20056;-77
2023/05/21 04:37:08;;;;;;;12.38;7.40;;;;;;;14.33;64.33;94783.09;5066510;28;20129;-77
2023/05/21 04:39:33;;;;;;;16.52;8.25;;;;;;;14.41;64.80;94781.56;5065610;28;20032;-76
2023/05/21 04:41:59;;;;;;;14.98;7.88;;;;;;;14.48;64.46;94789.56;5070111;28;20649;-76
2023/05/21 04:44:24;;;;;;;10.63;7.50;;;;;;;14.53;64.38;94785.41;5068045;28;20052;-76
2023/05/21 04:46:51;;;;;;;11.40;8.45;;;;;;;14.57;64.59;94783.25;5066229;28;20445;-76
2023/05/21 04:49:19;;;;;;;13.63;7.80;;;;;;;14.67;64.68;94792.25;5065457;28;20021;-78
2023/05/21 04:51:45;;;;;;;13.32;7.65;;;;;;;14.75;64.16;94790.69;5066468;28;20028;-77
2023/05/21 04:54:12;;;;;;;12.93;7.22;;;;;;;14.81;64.11;94792.38;5064803;28;20024;-78
2023/05/21 04:56:37;;;;;;;14.20;7.97;;;;;;;14.89;64.21;94781.72;5066843;28;20021;-77
2023/05/21 04:59:03;;;;;;;12.93;8.90;;;;;;;14.95;64.17;94790.91;5065877;28;20528;-77
2023/05/21 05:01:31;;;;;;;14.93;8.55;;;;;;;15.03;64.35;94789.34;5064778;28;20055;-77
2023/05/21 05:03:57;;;;;;;13.23;8.35;;;;;;;15.09;64.15;94792.22;5064539;28;20429;-78
2023/05/21 05:06:24;;;;;;;11.73;8.02;;;;;;;15.17;63.99;94793.41;5066211;28;20499;-77
2023/05/21 05:08:50;;;;;;;14.80;8.52;;;;;;;15.24;64.00;94792.28;5066651;28;20487;-77
2023/05/21 05:11:15;;;;;;;16.05;9.75;;;;;;;15.29;64.25;94789.63;5048114;28;20043;-77
2023/05/21 05:13:41;;;;;;;12.77;8.48;;;;;;;15.35;63.77;94792.53;5065077;28;20028;-76
2023/05/21 05:16:07;;;;;;;13.35;8.98;;;;;;;15.42;63.59;94786.63;5065664;28;20043;-76
2023/05/21 05:18:33;;;;;;;14.73;9.18;;;;;;;15.50;63.39;94790.59;5054072;28;20031;-77
2023/05/21 05:20:59;;;;;;;12.52;9.48;;;;;;;15.54;63.11;94793.97;5065580;28;20028;-77
2023/05/21 05:23:25;;;;;;;11.13;9.63;;;;;;;15.61;62.81;94790.06;5066707;28;20029;-77
2023/05/21 05:25:50;;;;;;;12.77;9.40;;;;;;;15.71;62.49;94793.53;5065878;28;20108;-76
2023/05/21 05:28:16;;;;;;;11.20;8.77;;;;;;;15.72;61.99;94795.09;5048507;28;20056;-77
2023/05/21 05:30:41;;;;;;;9.88;7.85;;;;;;;15.78;61.49;94799.50;5065123;28;20024;-77
2023/05/21 05:33:07;;;;;;;10.40;7.82;;;;;;;15.85;61.43;94785.25;5065914;28;20095;-77
2023/05/21 05:35:32;;;;;;;15.00;8.30;;;;;;;15.88;61.35;94786.31;5047101;28;20111;-76
2023/05/21 05:37:58;;;;;;;10.45;7.82;;;;;;;15.91;61.25;94785.38;5063888;28;20034;-77
2023/05/21 05:40:23;;;;;;;8.95;8.00;;;;;;;15.98;61.27;94795.31;5065929;28;20032;-76
2023/05/21 05:42:51;;;;;;;14.88;8.65;;;;;;;16.06;61.01;94782.63;5065580;28;20039;-77
2023/05/21 05:45:17;;;;;;;13.73;9.30;;;;;;;16.05;61.51;94790.16;5065636;28;20383;-77
2023/05/21 05:47:42;;;;;;;15.63;10.40;;;;;;;16.08;61.06;94780.91;5066475;28;20025;-76
2023/05/21 05:50:08;;;;;;;18.55;11.25;;;;;;;16.08;60.72;94786.44;5064203;28;20406;-76
2023/05/21 05:52:33;;;;;;;17.40;9.98;;;;;;;16.15;60.67;94785.31;5066341;28;20070;-76
2023/05/21 05:54:59;;;;;;;17.17;9.38;;;;;;;16.16;60.44;94779.28;5065469;28;20052;-77
2023/05/21 05:57:24;;;;;;;12.48;8.68;;;;;;;16.20;60.00;94781.88;5064768;28;20025;-76
2023/05/21 05:59:49;;;;;;;12.07;8.43;;;;;;;16.22;60.32;94779.38;5064063;28;20116;-76
2023/05/21 06:02:15;;;;;;;12.50;8.10;;;;;;;16.23;60.15;94780.13;5065322;28;20090;-77
2023/05/21 06:04:41;;;;;;;15.60;9.02;;;;;;;16.28;60.36;94779.47;5064197;28;20112;-77
2023/05/21 06:07:06;;;;;;;14.18;9.13;;;;;;;16.32;60.46;94785.59;5065402;28;20384;-77
2023/05/21 06:09:32;;;;;;;19.05;9.38;;;;;;;16.34;60.62;94785.88;5064622;28;20036;-76
2023/05/21 06:11:57;;;;;;;13.13;9.30;;;;;;;16.44;60.69;94784.53;5071539;28;20020;-77
2023/05/21 06:14:22;;;;;;;11.77;8.75;;;;;;;16.51;60.47;94783.38;5066282;28;20111;-78
2023/05/21 06:16:48;;;;;;;14.55;9.25;;;;;;;16.49;60.79;94777.56;5065325;28;20111;-76
2023/05/21 06:19:13;;;;;;;11.95;8.30;;;;;;;16.51;60.78;94775.81;5065431;28;20127;-75
2023/05/21 06:21:39;;;;;;;12.13;8.43;;;;;;;16.59;60.53;94765.13;5065006;28;20032;-77
2023/05/21 06:24:05;;;;;;;13.77;8.07;;;;;;;16.63;60.55;94765.66;5063918;28;20070;-77
2023/05/21 06:26:30;;;;;;;11.80;7.90;;;;;;;16.73;59.43;94764.34;5064257;28;20024;-77
2023/05/21 06:28:56;;;;;;;9.82;7.28;;;;;;;16.82;59.18;94766.25;5064185;28;20557;-77
2023/05/21 06:31:21;;;;;;;9.35;7.82;;;;;;;16.90;58.58;94764.59;5065248;28;20033;-76
2023/05/21 06:33:48;;;;;;;10.02;7.95;;;;;;;17.01;58.48;94770.31;5063826;28;20398;-76
2023/05/21 06:36:14;;;;;;;11.18;7.55;;;;;;;17.12;58.08;94764.16;5064007;28;20024;-77
2023/05/21 06:38:39;;;;;;;13.30;7.55;;;;;;;17.14;57.84;94764.44;5065113;28;20017;-78
2023/05/21 06:41:05;;;;;;;11.02;7.72;;;;;;;17.22;57.91;94760.78;5064353;28;20083;-78
2023/05/21 06:43:30;;;;;;;11.23;8.25;;;;;;;17.29;57.95;94750.50;5065780;28;20438;-79
2023/05/21 06:45:57;;;;;;;13.93;8.27;;;;;;;17.37;57.94;94746.81;5047573;28;20036;-79
2023/05/21 06:48:23;;;;;;;10.25;7.32;;;;;;;17.41;56.68;94752.19;5067410;28;20032;-80
2023/05/21 06:50:48;;;;;;;13.82;7.47;;;;;;;17.49;56.54;94754.06;5067230;28;20463;-78
2023/05/21 06:53:15;;;;;;;9.65;6.45;;;;;;;17.55;55.54;94748.56;5069064;28;20029;-80
2023/05/21 06:55:44;;;;;;;8.43;6.20;;;;;;;17.69;54.86;94750.50;5050636;28;20141;-78
2023/05/21 06:58:12;;;;;;;8.43;6.00;;;;;;;17.82;53.50;94752.94;5067571;28;20170;-80
2023/05/21 07:00:38;;;;;;;11.60;6.30;;;;;;;18.00;53.71;94749.84;5067761;28;20028;-78
2023/05/21 07:03:03;;;;;;;9.35;5.85;;;;;;;18.12;53.43;94747.97;5068718;28;20434;-79
2023/05/21 07:05:29;;;;;;;10.38;5.63;;;;;;;18.17;52.96;94744.44;5067989;28;20165;-79
2023/05/21 07:07:55;;;;;;;7.22;5.13;;;;;;;18.28;52.24;94749.34;5077503;28;20459;-78
2023/05/21 07:10:20;;;;;;;9.18;4.75;;;;;;;18.35;52.17;94746.16;5067755;28;20029;-79
2023/05/21 07:12:46;;;;;;;6.85;4.90;;;;;;;18.40;50.75;94741.88;5067234;28;20023;-79
2023/05/21 07:15:11;;;;;;;8.18;4.90;;;;;;;18.50;49.89;94740.44;5067467;28;20055;-78
2023/05/21 07:17:37;;;;;;;7.72;5.18;;;;;;;18.45;50.02;94741.91;5068251;28;20509;-79
2023/05/21 07:20:07;;;;;;;7.10;4.82;;;;;;;18.53;50.99;94745.03;5068797;28;20052;-79
2023/05/21 07:22:32;;;;;;;8.65;5.07;;;;;;;18.53;49.88;94743.03;5051121;28;20028;-78
2023/05/21 07:24:58;;;;;;;8.55;5.18;;;;;;;18.52;49.89;94738.72;5068265;28;20402;-79
2023/05/21 07:27:23;;;;;;;7.50;4.50;;;;;;;18.74;48.99;94743.69;5067016;28;20028;-79
2023/05/21 07:29:49;;;;;;;8.00;4.60;;;;;;;18.97;49.43;94738.28;5067869;28;20452;-80
2023/05/21 07:32:14;;;;;;;7.05;4.68;;;;;;;19.22;48.89;94745.03;5068410;28;20024;-79
2023/05/21 07:34:39;;;;;;;7.07;4.60;;;;;;;19.40;48.93;94746.66;5067108;28;20047;-79
2023/05/21 07:37:05;;;;;;;8.93;4.70;;;;;;;19.51;47.53;94741.88;5068829;28;20415;-78
2023/05/21 07:39:30;;;;;;;8.65;4.80;;;;;;;19.70;47.14;94749.84;5068425;28;20596;-80
2023/05/21 07:41:56;;;;;;;7.18;4.60;;;;;;;19.75;45.45;94743.53;5069147;28;20033;-81
2023/05/21 07:44:21;;;;;;;9.88;4.05;;;;;;;19.94;44.50;94750.16;5067659;28;20056;-79
2023/05/21 07:46:46;;;;;;;7.75;4.40;;;;;;;20.06;44.22;94748.16;5068953;28;20467;-80
2023/05/21 07:49:15;;;;;;;5.38;4.18;;;;;;;19.84;42.28;94738.50;5069160;28;20403;-79
2023/05/21 07:51:43;;;;;;;8.82;4.57;;;;;;;20.06;43.84;94742.59;5067923;28;20056;-79
2023/05/21 07:54:08;;;;;;;10.38;4.40;;;;;;;20.06;44.89;94739.78;5067462;28;20028;-79
2023/05/21 07:56:34;;;;;;;11.38;4.32;;;;;;;20.09;44.45;94738.81;5066564;28;20468;-79
2023/05/21 07:59:01;;;;;;;6.75;4.07;;;;;;;20.30;45.01;94739.31;5066764;28;20032;-79
2023/05/21 08:01:28;;;;;;;7.13;4.65;;;;;;;20.47;44.54;94737.34;5055602;28;20058;-79
2023/05/21 08:03:53;;;;;;;9.85;4.80;;;;;;;20.72;44.51;94727.22;5072336;28;20111;-79
2023/05/21 08:06:21;;;;;;;8.48;4.90;;;;;;;20.98;43.87;94732.50;5067931;28;20124;-79
2023/05/21 08:08:46;;;;;;;11.60;4.43;;;;;;;21.15;43.02;94730.44;5050487;28;20499;-80
2023/05/21 08:11:11;;;;;;;7.47;4.65;;;;;;;21.29;42.01;94739.84;5068477;28;20024;-78
2023/05/21 08:13:39;;;;;;;6.57;4.35;;;;;;;21.44;42.58;94740.28;5066588;28;20396;-78
2023/05/21 08:16:05;;;;;;;9.40;5.50;;;;;;;21.62;41.74;94741.00;5067885;28;20048;-79
2023/05/21 08:18:30;;;;;;;7.88;4.63;;;;;;;21.79;40.56;94747.28;5067079;28;20056;-79
2023/05/21 08:20:56;;;;;;;8.32;4.25;;;;;;;21.80;40.00;94740.44;5067702;28;20120;-79
2023/05/21 08:23:21;;;;;;;5.90;4.13;;;;;;;21.83;40.32;94738.63;5067456;28;20388;-78
2023/05/21 08:25:47;;;;;;;11.02;3.97;;;;;;;21.83;40.20;94738.63;5049135;28;20064;-79
2023/05/21 08:28:12;;;;;;;6.20;3.67;;;;;;;22.02;37.64;94739.53;5067016;28;20029;-80
2023/05/21 08:30:37;;;;;;;6.53;4.00;;;;;;;22.23;36.80;94726.72;5065201;28;20016;-79
2023/05/21 08:33:03;;;;;;;6.93;3.72;;;;;;;22.34;36.35;94725.13;5050089;28;20024;-80
2023/05/21 08:35:28;;;;;;;6.18;4.13;;;;;;;22.36;35.71;94737.34;5066942;28;20024;-79
2023/05/21 08:37:54;;;;;;;8.20;3.35;;;;;;;22.53;32.97;94737.22;5066646;28;20024;-79
2023/05/21 08:40:19;;;;;;;5.93;3.70;;;;;;;22.50;32.04;94735.47;5066362;28;20031;-79
2023/05/21 08:42:46;;;;;;;6.38;3.30;;;;;;;22.47;32.47;94733.69;5066130;28;20020;-78
2023/05/21 08:45:13;;;;;;;7.13;3.35;;;;;;;22.64;32.34;94737.13;5067951;28;20467;-79
2023/05/21 08:47:42;;;;;;;5.15;3.38;;;;;;;22.76;31.04;94729.38;5065490;28;20120;-80
2023/05/21 08:50:09;;;;;;;7.25;3.58;;;;;;;22.95;31.63;94733.09;5066625;28;20029;-80
2023/05/21 08:52:35;;;;;;;8.52;3.33;;;;;;;23.00;30.21;94740.69;5067018;28;20158;-78
2023/05/21 08:55:02;;;;;;;8.07;3.60;;;;;;;23.12;31.23;94746.19;5068090;28;20070;-78
2023/05/21 08:57:29;;;;;;;7.15;3.60;;;;;;;23.21;29.73;94734.63;5075731;28;20059;-79
2023/05/21 08:59:55;;;;;;;10.15;3.63;;;;;;;23.40;31.27;94738.25;5067477;28;20490;-78
2023/05/21 09:02:20;;;;;;;9.40;3.45;;;;;;;23.39;29.91;94719.88;5049530;28;20059;-80
2023/05/21 09:04:49;;;;;;;5.65;3.35;;;;;;;23.64;29.88;94728.31;5065583;28;20330;-79
2023/05/21 09:07:15;;;;;;;9.25;3.17;;;;;;;23.79;28.93;94723.03;5066547;28;20408;-78
2023/05/21 09:09:48;;;;;;;5.60;3.58;;;;;;;24.07;30.22;94717.03;5048150;28;20430;-79
2023/05/21 09:12:13;;;;;;;10.90;3.33;;;;;;;23.79;28.18;94731.44;5066341;28;20473;-78
2023/05/21 09:14:39;;;;;;;6.78;3.63;;;;;;;23.98;29.30;94731.47;5065254;28;20517;-78
2023/05/21 09:17:05;;;;;;;6.97;3.60;;;;;;;24.10;29.49;94735.66;5066413;28;20036;-77
2023/05/21 09:19:30;;;;;;;5.88;3.72;;;;;;;23.90;28.15;94733.34;5067191;28;20121;-78
2023/05/21 09:22:02;;;;;;;4.97;3.20;;;;;;;23.79;29.06;94723.78;5066618;28;20046;-78
2023/05/21 09:24:30;;;;;;;6.38;3.75;;;;;;;23.67;28.40;94724.44;5066792;28;20104;-78
2023/05/21 09:26:58;;;;;;;9.27;3.42;;;;;;;23.61;29.72;94718.88;5065776;28;20028;-78
2023/05/21 09:29:25;;;;;;;8.90;3.53;;;;;;;23.55;29.22;94724.56;5067533;28;20056;-79
2023/05/21 09:31:51;;;;;;;6.63;4.00;;;;;;;23.40;29.68;94715.81;5064774;28;20020;-77
2023/05/21 09:34:16;;;;;;;5.97;3.38;;;;;;;23.64;30.43;94726.28;5065419;28;20029;-78
2023/05/21 09:36:42;;;;;;;5.93;3.35;;;;;;;23.97;30.63;94719.50;5048159;28;20025;-78
2023/05/21 09:39:10;;;;;;;5.75;3.22;;;;;;;24.24;30.35;94726.00;5067462;28;20093;-78
2023/05/21 09:41:36;;;;;;;7.28;3.25;;;;;;;24.38;30.08;94728.91;5049309;28;20025;-79
2023/05/21 09:44:02;;;;;;;6.97;3.60;;;;;;;24.81;29.47;94723.88;5064746;28;20055;-80
2023/05/21 09:46:37;;;;;;;6.68;3.30;;;;;;;25.03;28.38;94719.91;5066246;28;20052;-80
2023/05/21 09:49:02;;;;;;;8.52;3.40;;;;;;;25.04;27.78;94715.81;5064803;28;20021;-80
2023/05/21 09:51:28;;;;;;;4.80;2.95;;;;;;;24.97;28.21;94716.44;5070171;28;20051;-79
2023/05/21 09:53:56;;;;;;;5.20;3.40;;;;;;;25.22;28.53;94722.69;5072125;28;20029;-81
2023/05/21 09:56:28;;;;;;;6.05;3.30;;;;;;;25.48;27.26;94716.31;5066290;28;20109;-80
2023/05/21 09:59:03;;;;;;;7.03;3.20;;;;;;;25.39;27.07;94717.50;5062818;28;20028;-79
2023/05/21 10:01:30;;;;;;;5.65;2.80;;;;;;;25.12;26.02;94716.72;5064215;28;20102;-79
2023/05/21 10:03:57;;;;;;;6.47;3.08;;;;;;;24.58;27.21;94703.78;5067989;28;20119;-80
2023/05/21 10:06:27;;;;;;;5.63;3.03;;;;;;;24.49;26.54;94707.03;5064517;28;20041;-79
2023/05/21 10:08:56;;;;;;;5.95;3.40;;;;;;;24.60;26.90;94706.84;5065216;28;20153;-79
2023/05/21 10:11:25;;;;;;;6.50;3.05;;;;;;;24.93;28.08;94710.38;5066744;28;20050;-81
2023/05/21 10:14:05;;;;;;;5.85;3.08;;;;;;;24.99;27.03;94707.47;5065940;28;20459;-80
2023/05/21 10:16:32;;;;;;;5.70;3.13;;;;;;;25.28;26.90;94703.63;5065192;28;20032;-80
2023/05/21 10:18:57;;;;;;;6.07;2.78;;;;;;;25.45;27.38;94694.13;5063831;28;20035;-79
2023/05/21 10:21:23;;;;;;;7.38;3.15;;;;;;;25.77;27.38;94699.66;5063479;28;20032;-79
2023/05/21 10:23:50;;;;;;;5.45;3.05;;;;;;;25.66;25.64;94698.56;5065475;28;20103;-79
2023/05/21 10:26:15;;;;;;;5.78;3.10;;;;;;;25.99;25.87;94692.81;5066700;28;20406;-80
2023/05/21 10:28:41;;;;;;;5.05;3.03;;;;;;;26.11;26.04;94699.69;5067393;28;20361;-79
2023/05/21 10:31:07;;;;;;;6.32;3.60;;;;;;;26.00;26.31;94691.50;5068709;28;20024;-78
2023/05/21 10:33:34;;;;;;;8.23;3.88;;;;;;;25.93;25.87;94688.03;5068876;28;20020;-78
2023/05/21 10:36:01;;;;;;;7.60;3.47;;;;;;;25.24;25.58;94696.84;5064583;28;20025;-79
2023/05/21 10:38:26;;;;;;;5.38;3.00;;;;;;;25.53;25.72;94695.75;5052648;28;20029;-79
2023/05/21 10:40:52;;;;;;;4.95;3.08;;;;;;;25.18;26.18;94690.56;5051012;28;20090;-78
2023/05/21 10:43:39;;;;;;;5.22;3.33;;;;;;;25.12;27.27;94685.78;5070809;28;20029;-79
2023/05/21 10:46:29;;;;;;;4.72;3.17;;;;;;;24.95;26.70;94684.56;5068644;28;20060;-79
2023/05/21 10:49:13;;;;;;;5.32;3.22;;;;;;;24.21;27.46;94690.56;5076058;28;20036;-79
2023/05/21 10:51:58;;;;;;;6.40;3.20;;;;;;;23.60;28.51;94689.31;5070935;28;20033;-84
2023/05/21 10:54:58;;;;;;;9.23;3.35;;;;;;;23.61;28.67;94690.81;5068003;28;20025;-81
2023/05/21 10:57:33;;;;;;;7.10;3.13;;;;;;;23.53;29.07;94693.47;5069314;28;20387;-80
2023/05/21 10:59:59;;;;;;;5.55;3.20;;;;;;;23.01;29.36;94686.16;5069313;28;20025;-78
2023/05/21 11:02:25;;;;;;;11.30;3.58;;;;;;;22.94;29.70;94697.94;5067550;28;20480;-82
2023/05/21 11:04:58;;;;;;;5.25;3.05;;;;;;;23.08;30.18;94684.78;5069327;28;20025;-80
2023/05/21 11:07:50;;;;;;;5.13;3.13;;;;;;;23.15;30.03;94680.66;5068589;28;20032;-80
2023/05/21 11:10:35;;;;;;;5.00;3.45;;;;;;;23.12;29.70;94679.66;5051880;28;20098;-80
2023/05/21 11:13:10;;;;;;;4.68;3.28;;;;;;;22.79;30.57;94684.28;5053254;28;20028;-82
2023/05/21 11:15:57;;;;;;;6.15;3.40;;;;;;;22.52;31.00;94688.84;5052498;28;20031;-82
2023/05/21 11:18:36;;;;;;;5.80;3.80;;;;;;;22.27;31.05;94692.88;5069005;28;20033;-79
2023/05/21 11:21:09;;;;;;;5.47;3.25;;;;;;;22.26;31.51;94685.75;5070273;28;20145;-78
2023/05/21 11:23:50;;;;;;;5.40;3.35;;;;;;;22.37;32.14;94688.47;5067949;28;20086;-79
2023/05/21 11:26:29;;;;;;;7.40;3.45;;;;;;;22.47;32.54;94677.69;5070592;28;20042;-79
2023/05/21 11:29:04;;;;;;;7.03;3.67;;;;;;;22.58;32.71;94677.59;5069675;28;20021;-82